Time;durP1;ratioP1;P1;durP2;ratioP2;P2;SDS_P1;SDS_P2;PMS_P1;PMS_P2;Temp;Humidity;BMP_temperature;BMP_pressure;BME280_temperature;BME280_humidity;BME280_pressure;Samples;Min_cycle;Max_cycle;Signal;HPM_P1;HPM_P2
2022/12/23 00:01:46;;;;;;;1.65;1.35;;;;;;;7.43;67.97;100236.50;18418049;32;20085;-58
2022/12/23 00:22:11;;;;;;;4.60;3.90;;;;;;;7.31;67.93;100231.19;18420700;31;20353;-58
2022/12/23 00:32:16;;;;;;;1.15;1.15;;;;;;;7.28;68.13;100224.25;18419173;32;20089;-58
2022/12/23 00:52:41;;;;;;;4.12;3.83;;;;;;;7.16;69.06;100231.94;18416914;32;20172;-58
2022/12/23 01:13:07;;;;;;;6.78;4.10;;;;;;;7.11;69.07;100241.41;18418210;32;20132;-58
2022/12/23 01:23:11;;;;;;;2.15;1.95;;;;;;;6.80;70.48;100224.66;18361888;32;20459;-58
2022/12/23 01:33:15;;;;;;;2.83;2.62;;;;;;;6.63;71.12;100224.50;18361829;32;20093;-58
2022/12/23 01:43:20;;;;;;;0.55;0.55;;;;;;;6.97;69.99;100205.81;18361245;32;20093;-58
2022/12/23 01:53:26;;;;;;;1.85;1.70;;;;;;;7.04;69.42;100197.25;18360751;32;20093;-58
2022/12/23 02:03:42;;;;;;;1.00;1.00;;;;;;;7.22;68.63;100195.66;18360625;32;20090;-58
2022/12/23 02:25:00;;;;;;;0.90;0.90;;;;;;;7.00;69.35;100177.28;18360266;31;20171;-58
2022/12/23 02:35:10;;;;;;;2.30;1.42;;;;;;;7.20;68.73;100176.59;18359271;32;20392;-58
2022/12/23 02:45:15;;;;;;;6.20;5.68;;;;;;;7.14;68.95;100176.56;18359989;31;20112;-58
2022/12/23 02:55:22;;;;;;;0.88;0.88;;;;;;;7.23;68.58;100166.25;18358845;32;20093;-58
2022/12/23 03:05:27;;;;;;;2.25;1.12;;;;;;;7.28;68.42;100154.16;18358363;32;20357;-58
2022/12/23 03:15:39;;;;;;;1.30;1.20;;;;;;;7.15;68.93;100141.94;18358303;31;20432;-58
2022/12/23 03:25:46;;;;;;;2.92;2.70;;;;;;;7.26;68.84;100153.28;18357480;32;20133;-58
2022/12/23 03:35:54;;;;;;;1.92;1.77;;;;;;;7.34;68.60;100153.31;18357030;32;20145;-58
2022/12/23 03:46:01;;;;;;;1.25;1.15;;;;;;;7.34;68.64;100141.22;18356268;31;20369;-58
2022/12/23 03:56:09;;;;;;;6.80;4.90;;;;;;;7.39;68.30;100135.16;18356161;32;20137;-58
2022/12/23 04:06:16;;;;;;;0.98;0.98;;;;;;;7.20;69.27;100137.62;18356497;32;20153;-58
2022/12/23 04:16:20;;;;;;;1.00;1.00;;;;;;;7.30;68.75;100131.69;18355069;32;20146;-58
2022/12/23 04:26:23;;;;;;;7.30;2.22;;;;;;;7.25;69.12;100122.97;18354678;32;20440;-58
2022/12/23 04:36:28;;;;;;;2.50;2.22;;;;;;;7.24;69.62;100115.16;18353963;32;20101;-58
2022/12/23 04:46:31;;;;;;;2.45;2.35;;;;;;;7.40;68.62;100121.31;18355635;31;20104;-58
2022/12/23 04:56:36;;;;;;;2.65;2.45;;;;;;;7.47;68.68;100128.31;18362956;32;20141;-58
2022/12/23 05:06:39;;;;;;;2.70;2.55;;;;;;;7.43;69.08;100122.22;18362612;32;20618;-58
2022/12/23 05:16:43;;;;;;;1.90;1.80;;;;;;;7.62;68.77;100136.19;18363306;32;20162;-59
2022/12/23 05:26:48;;;;;;;2.00;1.87;;;;;;;7.45;69.48;100133.50;18362910;32;20360;-58
2022/12/23 05:37:01;;;;;;;1.35;1.35;;;;;;;7.46;69.86;100135.25;18362588;32;20098;-58
2022/12/23 05:47:04;;;;;;;2.30;2.10;;;;;;;7.68;69.27;100135.34;18360944;31;20484;-58
2022/12/23 05:57:09;;;;;;;2.67;1.58;;;;;;;7.40;70.10;100155.09;18361261;32;20062;-58
2022/12/23 06:07:12;;;;;;;0.80;0.80;;;;;;;7.56;69.93;100156.09;18360607;32;20189;-58
2022/12/23 06:17:17;;;;;;;1.30;1.20;;;;;;;7.29;70.86;100145.50;18360312;32;20354;-58
2022/12/23 06:27:20;;;;;;;0.80;0.80;;;;;;;7.35;70.64;100147.25;18359675;32;20141;-58
2022/12/23 06:37:26;;;;;;;11.02;2.12;;;;;;;7.59;69.88;100151.78;18367632;32;20098;-58
2022/12/23 06:47:31;;;;;;;2.75;1.45;;;;;;;7.51;70.34;100137.88;18384562;31;20154;-58
2022/12/23 06:57:36;;;;;;;0.85;0.80;;;;;;;7.56;69.71;100153.47;18373721;32;20437;-58
2022/12/23 07:07:41;;;;;;;3.25;2.95;;;;;;;7.70;69.33;100163.97;18409084;32;20088;-58
2022/12/23 07:17:46;;;;;;;4.03;3.65;;;;;;;7.63;69.60;100166.50;18411146;31;20115;-58
2022/12/23 07:27:54;;;;;;;1.00;1.00;;;;;;;7.70;69.32;100166.56;18357307;32;20212;-58
2022/12/23 07:37:59;;;;;;;3.20;2.92;;;;;;;7.70;69.57;100172.59;18365034;32;20120;-58
2022/12/23 07:48:02;;;;;;;0.85;0.85;;;;;;;7.61;69.61;100188.12;18421072;31;20193;-58
2022/12/23 07:58:08;;;;;;;8.85;3.03;;;;;;;7.11;70.75;100194.69;18419995;32;20093;-58
2022/12/23 08:08:11;;;;;;;1.33;1.23;;;;;;;7.29;70.92;100179.25;18418200;32;20088;-58
2022/12/23 08:18:16;;;;;;;4.45;4.15;;;;;;;7.49;69.41;100173.31;18377546;32;20118;-58
2022/12/23 08:28:19;;;;;;;1.37;1.35;;;;;;;7.20;70.79;100150.62;18363694;32;20116;-58
2022/12/23 08:38:25;;;;;;;0.93;0.93;;;;;;;7.32;70.56;100160.22;18388892;32;20101;-59
2022/12/23 08:48:29;;;;;;;0.90;0.90;;;;;;;6.10;74.81;100134.88;18409398;32;20460;-60
2022/12/23 08:58:36;;;;;;;1.05;1.02;;;;;;;6.74;70.74;100164.97;18427155;31;20101;-60
2022/12/23 09:08:40;;;;;;;0.90;0.90;;;;;;;7.12;70.21;100121.16;18367487;32;20460;-60
2022/12/23 09:18:44;;;;;;;2.40;1.95;;;;;;;6.97;70.72;100107.19;18369218;32;20137;-60
2022/12/23 09:28:48;;;;;;;0.70;0.70;;;;;;;7.12;69.98;100142.78;18375805;32;20396;-63
2022/12/23 09:38:55;;;;;;;1.12;1.12;;;;;;;7.07;70.11;100137.56;18384307;32;20110;-60
2022/12/23 09:49:01;;;;;;;0.60;0.60;;;;;;;7.28;70.09;100125.59;18411548;31;20119;-60
2022/12/23 09:59:14;;;;;;;1.98;1.87;;;;;;;7.19;69.54;100094.37;18422402;32;20103;-60
2022/12/23 10:09:18;;;;;;;1.15;1.08;;;;;;;7.40;69.87;100097.94;18423157;32;20202;-60
2022/12/23 10:19:25;;;;;;;0.70;0.70;;;;;;;7.27;69.94;100065.88;18390811;32;20097;-60
2022/12/23 10:29:31;;;;;;;1.90;1.80;;;;;;;7.30;68.82;100053.78;18361643;31;20097;-60
2022/12/23 10:39:41;;;;;;;1.35;1.25;;;;;;;7.38;69.78;100052.94;18418697;32;20085;-60
2022/12/23 10:49:53;;;;;;;3.12;2.35;;;;;;;7.31;69.31;100044.25;18399438;32;20185;-60
2022/12/23 10:59:59;;;;;;;;;;;;;;;7.50;69.64;100045.22;18422703;32;20093;-60
2022/12/23 11:10:05;;;;;;;1.17;1.12;;;;;;;7.45;69.48;100032.22;18420001;32;19998;-60
2022/12/23 11:20:14;;;;;;;3.33;2.45;;;;;;;7.31;69.91;100042.53;18403187;32;20157;-60
2022/12/23 11:30:18;;;;;;;5.15;3.53;;;;;;;7.35;69.70;100040.78;18417815;32;20093;-60
2022/12/23 11:40:24;;;;;;;1.37;1.27;;;;;;;7.24;70.34;100032.97;18357589;32;207145;-60
2022/12/23 11:50:33;;;;;;;1.05;1.05;;;;;;;7.48;69.70;100042.59;18385091;32;20093;-61
2022/12/23 12:00:41;;;;;;;1.20;1.20;;;;;;;7.68;69.30;100036.63;18371974;32;20105;-60
2022/12/23 12:10:44;;;;;;;3.17;1.73;;;;;;;7.73;69.25;100042.72;18409990;32;20108;-60
2022/12/23 12:20:51;;;;;;;1.35;1.10;;;;;;;7.75;69.79;100045.31;18407005;32;20149;-60
2022/12/23 12:30:58;;;;;;;3.55;2.85;;;;;;;7.87;69.16;100034.97;18377871;32;20727;-60
2022/12/23 12:41:08;;;;;;;1.30;1.30;;;;;;;7.77;69.54;100048.78;18364866;32;20098;-61
2022/12/23 12:51:16;;;;;;;2.95;2.75;;;;;;;7.94;69.54;100046.25;18379432;32;20198;-61
2022/12/23 13:01:33;;;;;;;1.05;1.05;;;;;;;8.02;68.85;100054.94;18380645;32;20088;-61
2022/12/23 13:11:43;;;;;;;1.37;1.23;;;;;;;8.00;69.43;100050.59;18383562;32;20094;-61
2022/12/23 13:21:52;;;;;;;0.90;0.90;;;;;;;8.23;68.98;100045.44;18362931;32;20697;-60
2022/12/23 13:32:01;;;;;;;2.40;2.20;;;;;;;7.91;70.40;100067.91;18369227;32;20089;-60
2022/12/23 13:42:05;;;;;;;1.58;1.48;;;;;;;8.11;69.65;100064.47;18382991;32;20153;-60
2022/12/23 13:52:12;;;;;;;4.75;4.35;;;;;;;8.31;69.21;100045.44;18364854;32;20149;-61
2022/12/23 14:02:42;;;;;;;1.20;1.15;;;;;;;8.36;69.06;100059.34;18384542;32;20107;-60
2022/12/23 14:12:45;;;;;;;6.70;1.62;;;;;;;8.40;68.87;100071.47;18381856;32;20361;-61
2022/12/23 14:23:00;;;;;;;1.27;1.15;;;;;;;8.49;68.71;100048.94;18394537;32;20115;-61
2022/12/23 14:33:05;;;;;;;0.95;0.95;;;;;;;8.44;68.75;100042.00;18404860;32;20108;-60
2022/12/23 14:43:33;;;;;;;2.53;1.35;;;;;;;8.31;68.97;100063.66;18363614;32;20125;-61
2022/12/23 14:53:38;;;;;;;1.05;1.05;;;;;;;8.46;68.46;100081.91;18387358;32;20098;-61
2022/12/23 15:03:45;;;;;;;4.20;2.50;;;;;;;8.33;68.66;100068.00;18380662;32;20464;-61
2022/12/23 15:13:50;;;;;;;2.67;2.45;;;;;;;8.38;68.38;100078.41;18379326;32;20105;-60
2022/12/23 15:23:55;;;;;;;2.40;2.30;;;;;;;8.31;68.57;100084.47;18421458;32;20158;-60
2022/12/23 15:33:58;;;;;;;1.83;1.70;;;;;;;8.23;69.04;100119.97;18416147;32;20121;-60
2022/12/23 15:44:14;;;;;;;1.02;1.02;;;;;;;8.14;69.29;100113.03;18410630;32;20437;-61
2022/12/23 15:54:21;;;;;;;1.80;1.52;;;;;;;8.28;68.84;100102.66;18356726;32;20461;-61
2022/12/23 16:04:27;;;;;;;2.08;1.45;;;;;;;8.23;69.06;100107.84;18372340;32;20094;-61
2022/12/23 16:14:34;;;;;;;3.12;2.87;;;;;;;7.06;74.24;100091.69;18376347;32;20098;-60
2022/12/23 16:24:44;;;;;;;2.00;1.85;;;;;;;7.98;70.83;100075.72;18368911;32;20752;-59
2022/12/23 16:34:49;;;;;;;2.67;1.92;;;;;;;8.17;69.87;100087.91;18372880;32;20093;-59
2022/12/23 16:44:54;;;;;;;4.72;4.32;;;;;;;8.14;69.93;100087.03;18391830;31;20142;-59
2022/12/23 16:54:57;;;;;;;11.15;6.03;;;;;;;8.17;69.68;100090.50;18378942;32;20149;-60
2022/12/23 17:05:01;;;;;;;2.72;1.73;;;;;;;8.14;69.61;100080.09;18377561;32;20116;-59
2022/12/23 17:15:06;;;;;;;3.80;3.50;;;;;;;7.96;70.12;100074.81;18391825;32;20097;-60
2022/12/23 17:25:13;;;;;;;2.53;2.35;;;;;;;8.18;69.16;100084.44;18425930;32;20111;-60
2022/12/23 17:35:16;;;;;;;1.40;1.40;;;;;;;7.98;70.09;100088.72;18412225;32;20116;-60
2022/12/23 17:45:24;;;;;;;4.87;3.10;;;;;;;7.66;71.65;100068.66;18399203;31;20109;-60
2022/12/23 17:55:28;;;;;;;2.28;2.12;;;;;;;7.84;70.67;100055.72;18393207;32;20108;-60
2022/12/23 18:05:34;;;;;;;2.58;1.92;;;;;;;8.01;69.96;100083.53;18385774;32;20508;-60
2022/12/23 18:15:43;;;;;;;0.75;0.75;;;;;;;8.08;69.67;100080.09;18386665;32;20369;-60
2022/12/23 18:25:47;;;;;;;1.23;1.23;;;;;;;7.99;69.96;100074.84;18377602;32;20361;-61
2022/12/23 18:35:51;;;;;;;2.72;2.53;;;;;;;8.06;69.55;100061.00;18385259;32;20101;-60
2022/12/23 18:45:55;;;;;;;0.80;0.80;;;;;;;8.06;69.34;100068.78;18380840;31;20448;-60
2022/12/23 18:55:58;;;;;;;1.55;1.45;;;;;;;7.98;69.55;100067.94;18394947;32;20456;-60
2022/12/23 19:06:06;;;;;;;2.25;1.85;;;;;;;7.48;71.42;100083.28;18361958;32;20097;-60
2022/12/23 19:16:12;;;;;;;1.25;1.17;;;;;;;7.52;70.93;100079.84;18366618;32;20107;-60
2022/12/23 19:26:17;;;;;;;1.15;1.12;;;;;;;7.61;71.23;100085.09;18387716;32;20093;-60
2022/12/23 19:36:22;;;;;;;2.17;1.80;;;;;;;7.49;70.85;100075.50;18393371;32;20125;-60
2022/12/23 19:46:27;;;;;;;2.97;2.78;;;;;;;7.81;70.16;100093.84;18391375;31;20148;-60
2022/12/23 19:56:31;;;;;;;0.85;0.85;;;;;;;7.88;69.41;100104.28;18404199;32;20540;-60
2022/12/23 20:06:37;;;;;;;2.28;1.23;;;;;;;7.83;69.38;100121.56;18417136;32;20198;-60
2022/12/23 20:16:40;;;;;;;1.80;1.70;;;;;;;7.80;69.23;100108.56;18419412;32;20125;-60
2022/12/23 20:26:45;;;;;;;0.98;0.98;;;;;;;7.66;69.47;100103.31;18419508;32;20096;-60
2022/12/23 20:36:48;;;;;;;0.90;0.90;;;;;;;7.62;69.41;100120.59;18403350;32;20200;-60
2022/12/23 20:46:53;;;;;;;1.52;1.45;;;;;;;7.70;69.23;100105.06;18404528;31;20385;-60
2022/12/23 20:56:56;;;;;;;0.90;0.90;;;;;;;7.61;69.62;100105.88;18358244;32;20581;-59
2022/12/23 21:07:01;;;;;;;1.83;1.73;;;;;;;7.65;69.79;100096.38;18351937;32;20445;-60
2022/12/23 21:17:04;;;;;;;2.25;2.08;;;;;;;7.61;69.77;100079.91;18350744;32;20094;-60
2022/12/23 21:27:09;;;;;;;0.90;0.90;;;;;;;7.63;69.84;100079.91;18390858;32;20099;-60
2022/12/23 21:37:12;;;;;;;0.60;0.60;;;;;;;7.82;69.35;100066.97;18386750;32;20445;-60
2022/12/23 21:47:17;;;;;;;2.92;1.40;;;;;;;7.81;69.29;100049.66;18387590;31;20093;-60
2022/12/23 21:57:20;;;;;;;3.00;2.37;;;;;;;7.77;69.27;100030.59;18385205;32;20081;-60
2022/12/23 22:07:28;;;;;;;1.42;1.35;;;;;;;7.69;69.77;100029.72;18384808;32;20125;-60
2022/12/23 22:17:33;;;;;;;4.03;3.72;;;;;;;7.75;69.53;99995.94;18359894;32;20487;-60
2022/12/23 22:27:38;;;;;;;1.87;1.77;;;;;;;7.82;69.31;99982.09;18392171;32;20111;-60
2022/12/23 22:37:41;;;;;;;0.70;0.70;;;;;;;7.79;69.35;99948.31;18388052;32;20117;-60
2022/12/23 22:47:48;;;;;;;1.60;1.55;;;;;;;7.70;69.46;99956.94;18368556;31;20101;-60
2022/12/23 22:57:52;;;;;;;3.62;3.28;;;;;;;7.91;68.54;99939.66;18358746;32;20373;-60
2022/12/23 23:07:58;;;;;;;0.73;0.73;;;;;;;7.66;69.24;99925.75;18358904;32;20089;-60
2022/12/23 23:18:01;;;;;;;1.37;1.27;;;;;;;7.69;69.27;99925.78;18358200;32;20141;-60
2022/12/23 23:28:06;;;;;;;1.40;1.30;;;;;;;7.70;69.31;99938.75;18357556;32;20181;-60
2022/12/23 23:38:10;;;;;;;1.60;1.50;;;;;;;7.75;69.02;99972.56;18357324;32;20101;-60
2022/12/23 23:48:15;;;;;;;0.75;0.75;;;;;;;7.65;69.71;99966.47;18356641;31;20108;-60
2022/12/23 23:58:18;;;;;;;1.00;1.00;;;;;;;7.72;69.67;99941.38;18356188;32;20089;-59
